createdAt,value
2022-08-08T00:01:10.262Z,100.00
2022-08-08T00:03:48.300Z,100.00
2022-08-08T00:06:33.900Z,100.00
2022-08-08T00:09:11.983Z,100.00
2022-08-08T00:12:09.396Z,100.00
2022-08-08T00:14:54.665Z,100.00
2022-08-08T00:18:01.952Z,100.00
2022-08-08T00:20:32.432Z,100.00
2022-08-08T00:23:06.258Z,100.00
2022-08-08T00:25:44.885Z,100.00
2022-08-08T00:28:35.386Z,100.00
2022-08-08T00:32:28.252Z,100.00
2022-08-08T00:34:20.316Z,100.00
2022-08-08T00:37:03.366Z,100.00
2022-08-08T00:41:09.056Z,100.00
2022-08-08T00:43:19.592Z,100.00
2022-08-08T00:46:05.871Z,100.00
2022-08-08T00:49:21.863Z,100.00
2022-08-08T00:52:03.830Z,100.00
2022-08-08T00:54:53.200Z,100.00
2022-08-08T00:57:57.158Z,100.00
2022-08-08T01:00:31.180Z,100.00
2022-08-08T01:04:02.425Z,100.00
2022-08-08T01:07:06.235Z,100.00
2022-08-08T01:10:20.931Z,100.00
2022-08-08T01:13:43.343Z,100.00
2022-08-08T01:16:48.776Z,100.00
2022-08-08T01:20:02.037Z,100.00
2022-08-08T01:23:03.089Z,100.00
2022-08-08T01:26:11.744Z,100.00
2022-08-08T01:29:23.982Z,100.00
2022-08-08T01:32:23.206Z,100.00
2022-08-08T01:35:38.428Z,100.00
2022-08-08T01:38:40.520Z,100.00
2022-08-08T01:41:19.179Z,100.00
2022-08-08T01:43:53.405Z,100.00
2022-08-08T01:46:52.505Z,100.00
2022-08-08T01:49:38.724Z,100.00
2022-08-08T01:53:01.545Z,100.00
2022-08-08T01:56:28.838Z,100.00
2022-08-08T01:58:38.296Z,100.00
2022-08-08T02:01:17.950Z,100.00
2022-08-08T02:04:01.827Z,100.00
2022-08-08T02:06:49.060Z,100.00
2022-08-08T02:10:04.095Z,100.00
2022-08-08T02:12:38.299Z,100.00
2022-08-08T02:15:12.548Z,100.00
2022-08-08T02:17:47.676Z,100.00
2022-08-08T02:21:01.822Z,100.00
2022-08-08T02:23:22.849Z,100.00
2022-08-08T02:26:02.845Z,100.00
2022-08-08T02:28:48.543Z,100.00
2022-08-08T02:31:57.916Z,100.00
2022-08-08T02:35:07.636Z,100.00
2022-08-08T02:37:56.922Z,100.00
2022-08-08T02:40:39.167Z,100.00
2022-08-08T02:44:42.641Z,100.00
2022-08-08T02:46:44.961Z,100.00
2022-08-08T02:49:51.983Z,100.00
2022-08-08T02:52:50.857Z,100.00
2022-08-08T02:55:57.714Z,100.00
2022-08-08T02:59:05.919Z,100.00
2022-08-08T03:02:30.085Z,100.00
2022-08-08T03:05:44.816Z,100.00
2022-08-08T03:08:51.815Z,100.00
2022-08-08T03:12:03.044Z,100.00
2022-08-08T03:15:59.454Z,100.00
2022-08-08T03:17:59.841Z,100.00
2022-08-08T03:20:47.066Z,100.00
2022-08-08T03:23:22.351Z,100.00
2022-08-08T03:25:52.502Z,100.00
2022-08-08T03:28:27.697Z,100.00
2022-08-08T03:31:22.419Z,100.00
2022-08-08T03:33:55.430Z,100.00
2022-08-08T03:36:30.313Z,100.00
2022-08-08T03:39:14.541Z,100.00
2022-08-08T03:42:26.668Z,100.00
2022-08-08T03:44:34.541Z,100.00
2022-08-08T03:47:19.259Z,100.00
2022-08-08T03:50:00.163Z,100.00
2022-08-08T03:52:31.336Z,100.00
2022-08-08T03:55:10.590Z,100.00
2022-08-08T03:58:35.298Z,100.00
2022-08-08T04:00:56.480Z,100.00
2022-08-08T04:03:25.961Z,100.00
2022-08-08T04:06:13.504Z,100.00
2022-08-08T04:08:41.887Z,100.00
2022-08-08T04:11:17.290Z,100.00
2022-08-08T04:14:03.943Z,100.00
2022-08-08T04:16:40.543Z,100.00
2022-08-08T04:19:22.937Z,100.00
2022-08-08T04:21:52.230Z,100.00
2022-08-08T04:24:29.450Z,100.00
2022-08-08T04:27:00.789Z,100.00
2022-08-08T04:29:36.864Z,100.00
2022-08-08T04:32:06.666Z,100.00
2022-08-08T04:34:55.314Z,100.00
2022-08-08T04:37:31.634Z,100.00
2022-08-08T04:40:06.413Z,100.00
2022-08-08T04:42:37.516Z,100.00
2022-08-08T04:45:15.338Z,100.00
2022-08-08T04:47:47.145Z,100.00
2022-08-08T04:50:24.796Z,100.00
2022-08-08T04:53:01.175Z,100.00
2022-08-08T04:55:47.789Z,100.00
2022-08-08T04:58:22.678Z,100.00
2022-08-08T05:00:51.720Z,100.00
2022-08-08T05:04:10.627Z,100.00
2022-08-08T05:06:13.151Z,100.00
2022-08-08T05:08:42.364Z,100.00
2022-08-08T05:11:18.638Z,100.00
2022-08-08T05:13:54.903Z,100.00
2022-08-08T05:16:52.684Z,100.00
2022-08-08T05:20:10.733Z,100.00
2022-08-08T05:22:03.429Z,100.00
2022-08-08T05:24:32.329Z,100.00
2022-08-08T05:27:00.363Z,100.00
2022-08-08T05:29:29.544Z,100.00
2022-08-08T05:32:04.690Z,100.00
2022-08-08T05:34:36.924Z,100.00
2022-08-08T05:37:15.769Z,100.00
2022-08-08T05:39:47.539Z,100.00
2022-08-08T05:42:16.083Z,100.00
2022-08-08T05:44:51.664Z,100.00
2022-08-08T05:47:22.665Z,100.00
2022-08-08T05:49:54.028Z,100.00
2022-08-08T05:52:27.344Z,100.00
2022-08-08T05:55:07.557Z,100.00
2022-08-08T05:58:05.255Z,100.00
2022-08-08T06:00:34.102Z,100.00
2022-08-08T06:03:17.559Z,100.00
2022-08-08T06:05:59.160Z,100.00
2022-08-08T06:08:34.904Z,100.00
2022-08-08T06:11:05.637Z,100.00
2022-08-08T06:13:36.109Z,100.00
2022-08-08T06:16:16.615Z,100.00
2022-08-08T06:18:51.836Z,100.00
2022-08-08T06:21:32.812Z,100.00
2022-08-08T06:24:14.112Z,100.00
2022-08-08T06:26:55.270Z,100.00
2022-08-08T06:29:49.409Z,100.00
2022-08-08T06:32:29.645Z,100.00
2022-08-08T06:36:04.548Z,100.00
2022-08-08T06:37:55.949Z,100.00
2022-08-08T06:40:26.997Z,100.00
2022-08-08T06:42:56.943Z,100.00
2022-08-08T06:45:25.698Z,100.00
2022-08-08T06:48:00.722Z,100.00
2022-08-08T06:50:33.586Z,100.00
2022-08-08T06:53:14.337Z,100.00
2022-08-08T06:56:00.777Z,100.00
2022-08-08T06:58:33.665Z,100.00
2022-08-08T07:01:24.577Z,100.00
2022-08-08T07:04:39.453Z,100.00
2022-08-08T07:06:51.619Z,100.00
2022-08-08T07:09:21.929Z,100.00
2022-08-08T07:11:58.473Z,100.00
2022-08-08T07:14:28.522Z,100.00
2022-08-08T07:17:09.134Z,100.00
2022-08-08T07:19:44.506Z,100.00
2022-08-08T07:22:18.737Z,100.00
2022-08-08T07:24:53.153Z,100.00
2022-08-08T07:27:35.231Z,100.00
2022-08-08T07:30:21.196Z,100.00
2022-08-08T07:32:59.562Z,100.00
2022-08-08T07:35:31.018Z,100.00
2022-08-08T07:38:10.186Z,100.00
2022-08-08T07:40:40.344Z,100.00
2022-08-08T07:43:13.078Z,100.00
2022-08-08T07:46:05.385Z,100.00
2022-08-08T07:48:31.791Z,100.00
2022-08-08T07:51:04.268Z,100.00
2022-08-08T07:54:00.623Z,100.00
2022-08-08T07:56:36.278Z,100.00
2022-08-08T07:59:10.650Z,100.00
2022-08-08T08:02:36.762Z,100.00
2022-08-08T08:04:40.059Z,100.00
2022-08-08T08:07:11.920Z,100.00
2022-08-08T08:09:42.079Z,100.00
2022-08-08T08:12:31.971Z,100.00
2022-08-08T08:15:05.002Z,100.00
2022-08-08T08:17:36.379Z,100.00
2022-08-08T08:20:16.578Z,100.00
2022-08-08T08:22:47.463Z,100.00
2022-08-08T08:25:16.708Z,100.00
2022-08-08T08:27:47.329Z,100.00
2022-08-08T08:30:16.003Z,100.00
2022-08-08T08:32:51.202Z,100.00
2022-08-08T08:35:21.771Z,100.00
2022-08-08T08:38:15.743Z,100.00
2022-08-08T08:40:48.580Z,100.00
2022-08-08T08:43:18.584Z,100.00
2022-08-08T08:45:48.895Z,99.06
2022-08-08T08:48:19.841Z,100.00
2022-08-08T08:50:51.970Z,100.00
2022-08-08T08:53:34.284Z,97.98
2022-08-08T08:56:12.988Z,97.20
2022-08-08T08:58:46.999Z,96.22
2022-08-08T09:01:20.343Z,93.85
2022-08-08T09:03:51.478Z,92.91
2022-08-08T09:06:28.789Z,100.00
2022-08-08T09:09:07.114Z,100.00
2022-08-08T09:11:47.688Z,100.00
2022-08-08T09:14:26.807Z,100.00
2022-08-08T09:16:55.479Z,100.00
2022-08-08T09:21:59.700Z,98.54
2022-08-08T09:22:12.279Z,100.00
2022-08-08T09:24:42.815Z,100.00
2022-08-08T09:27:20.440Z,100.00
2022-08-08T09:29:53.449Z,100.00
2022-08-08T09:32:37.368Z,100.00
2022-08-08T09:35:09.151Z,100.00
2022-08-08T09:37:58.742Z,100.00
2022-08-08T09:40:46.567Z,100.00
2022-08-08T09:43:40.601Z,100.00
2022-08-08T09:46:25.658Z,100.00
2022-08-08T09:49:18.117Z,100.00
2022-08-08T09:52:06.333Z,100.00
2022-08-08T09:54:42.378Z,100.00
2022-08-08T09:57:19.006Z,100.00
2022-08-08T10:00:14.815Z,100.00
2022-08-08T10:02:41.854Z,100.00
2022-08-08T10:05:22.907Z,100.00
2022-08-08T10:08:00.491Z,100.00
2022-08-08T10:10:31.886Z,100.00
2022-08-08T10:13:14.111Z,100.00
2022-08-08T10:15:59.414Z,100.00
2022-08-08T10:18:30.716Z,100.00
2022-08-08T10:21:23.083Z,100.00
2022-08-08T10:23:57.764Z,100.00
2022-08-08T10:26:58.643Z,100.00
2022-08-08T10:29:24.903Z,100.00
2022-08-08T10:32:16.335Z,100.00
2022-08-08T10:34:58.602Z,100.00
2022-08-08T10:37:30.533Z,100.00
2022-08-08T10:40:02.464Z,100.00
2022-08-08T10:42:37.680Z,100.00
2022-08-08T10:45:15.951Z,100.00
2022-08-08T10:47:53.611Z,100.00
2022-08-08T10:50:24.621Z,100.00
2022-08-08T10:53:03.555Z,100.00
2022-08-08T10:55:40.655Z,100.00
2022-08-08T10:58:11.685Z,100.00
2022-08-08T11:00:53.455Z,100.00
2022-08-08T11:04:00.380Z,100.00
2022-08-08T11:06:34.133Z,100.00
2022-08-08T11:09:15.164Z,100.00
2022-08-08T11:12:06.382Z,98.05
2022-08-08T11:14:35.883Z,98.01
2022-08-08T11:17:07.731Z,93.76
2022-08-08T11:19:46.407Z,86.87
2022-08-08T11:22:16.386Z,69.69
2022-08-08T11:24:47.649Z,77.04
2022-08-08T11:27:20.147Z,81.91
2022-08-08T11:30:20.035Z,74.32
2022-08-08T11:32:47.475Z,75.18
2022-08-08T11:35:27.226Z,77.36
2022-08-08T11:38:35.148Z,81.57
2022-08-08T11:40:53.288Z,75.47
2022-08-08T11:43:25.861Z,69.48
2022-08-08T11:46:14.366Z,69.47
2022-08-08T11:48:48.232Z,68.46
2022-08-08T11:51:30.468Z,68.85
2022-08-08T11:54:27.381Z,67.81
2022-08-08T11:56:56.697Z,66.07
2022-08-08T11:59:58.386Z,60.74
2022-08-08T12:02:32.149Z,66.08
2022-08-08T12:05:07.349Z,62.16
2022-08-08T12:07:51.180Z,63.10
2022-08-08T12:10:21.386Z,61.39
2022-08-08T12:12:51.870Z,59.63
2022-08-08T12:15:30.686Z,61.93
2022-08-08T12:18:21.434Z,63.49
2022-08-08T12:20:56.583Z,60.70
2022-08-08T12:23:43.905Z,62.97
2022-08-08T12:26:27.969Z,58.53
2022-08-08T12:29:18.388Z,67.85
2022-08-08T12:31:53.510Z,65.94
2022-08-08T12:34:52.121Z,64.12
2022-08-08T12:37:41.284Z,61.94
2022-08-08T12:40:24.257Z,64.20
2022-08-08T12:42:55.590Z,59.32
2022-08-08T12:45:57.829Z,64.04
2022-08-08T12:48:36.683Z,61.98
2022-08-08T12:51:07.807Z,67.74
2022-08-08T12:53:59.182Z,64.11
2022-08-08T12:56:34.753Z,71.75
2022-08-08T12:59:02.872Z,66.52
2022-08-08T13:01:37.378Z,57.68
2022-08-08T13:04:18.857Z,62.73
2022-08-08T13:07:16.818Z,58.09
2022-08-08T13:10:10.818Z,54.07
2022-08-08T13:12:47.008Z,58.46
2022-08-08T13:15:19.592Z,68.89
2022-08-08T13:18:08.879Z,75.71
2022-08-08T13:20:45.168Z,70.93
2022-08-08T13:23:36.603Z,62.96
2022-08-08T13:26:15.690Z,63.65
2022-08-08T13:28:45.730Z,64.50
2022-08-08T13:31:17.241Z,78.18
2022-08-08T13:33:49.692Z,73.24
2022-08-08T13:36:25.759Z,80.03
2022-08-08T13:38:54.495Z,74.82
2022-08-08T13:41:24.341Z,69.85
2022-08-08T13:43:57.793Z,70.29
2022-08-08T13:46:26.686Z,64.76
2022-08-08T13:49:11.556Z,73.35
2022-08-08T13:51:57.075Z,64.37
2022-08-08T13:54:31.211Z,65.21
2022-08-08T13:57:12.411Z,81.76
2022-08-08T13:59:48.371Z,93.60
2022-08-08T14:02:20.490Z,95.16
2022-08-08T14:04:57.355Z,94.45
2022-08-08T14:07:35.644Z,100.00
2022-08-08T14:10:17.262Z,100.00
2022-08-08T14:12:48.541Z,100.00
2022-08-08T14:15:31.616Z,100.00
2022-08-08T14:18:34.983Z,100.00
2022-08-08T14:21:02.830Z,100.00
2022-08-08T14:24:04.752Z,100.00
2022-08-08T14:26:29.311Z,100.00
2022-08-08T14:29:01.450Z,100.00
2022-08-08T14:31:36.795Z,100.00
2022-08-08T14:34:23.239Z,100.00
2022-08-08T14:36:55.723Z,100.00
2022-08-08T14:39:24.583Z,100.00
2022-08-08T14:42:03.413Z,100.00
2022-08-08T14:44:39.561Z,100.00
2022-08-08T14:47:20.958Z,100.00
2022-08-08T14:50:02.536Z,100.00
2022-08-08T14:52:44.333Z,100.00
2022-08-08T14:55:16.435Z,100.00
2022-08-08T14:58:06.553Z,100.00
2022-08-08T15:00:42.190Z,100.00
2022-08-08T15:03:15.706Z,100.00
2022-08-08T15:05:53.682Z,100.00
2022-08-08T15:08:35.569Z,100.00
2022-08-08T15:11:09.384Z,100.00
2022-08-08T15:14:00.784Z,100.00
2022-08-08T15:16:34.436Z,100.00
2022-08-08T15:19:03.350Z,100.00
2022-08-08T15:21:31.517Z,100.00
2022-08-08T15:23:59.780Z,100.00
2022-08-08T15:26:28.834Z,100.00
2022-08-08T15:28:57.753Z,100.00
2022-08-08T15:32:03.539Z,100.00
2022-08-08T15:34:28.855Z,100.00
2022-08-08T15:36:58.104Z,100.00
2022-08-08T15:39:26.022Z,100.00
2022-08-08T15:41:54.823Z,97.17
2022-08-08T15:44:22.683Z,90.58
2022-08-08T15:46:51.274Z,86.07
2022-08-08T15:49:22.371Z,86.51
2022-08-08T15:51:54.599Z,87.07
2022-08-08T15:54:38.921Z,93.87
2022-08-08T15:57:08.851Z,90.32
2022-08-08T16:00:10.970Z,91.24
2022-08-08T16:02:31.183Z,97.96
2022-08-08T16:05:01.526Z,100.00
2022-08-08T16:07:39.207Z,100.00
2022-08-08T16:13:03.267Z,100.00
2022-08-08T16:13:35.015Z,94.33
2022-08-08T16:15:57.534Z,92.35
2022-08-08T16:18:27.974Z,90.62
2022-08-08T16:21:00.494Z,95.25
2022-08-08T16:23:31.704Z,100.00
2022-08-08T16:26:03.953Z,94.65
2022-08-08T16:28:35.952Z,89.53
2022-08-08T16:31:07.786Z,100.00
2022-08-08T16:33:38.410Z,100.00
2022-08-08T16:36:09.526Z,100.00
2022-08-08T16:38:40.702Z,100.00
2022-08-08T16:41:20.502Z,100.00
2022-08-08T16:43:51.652Z,100.00
2022-08-08T16:46:37.814Z,99.30
2022-08-08T16:49:09.501Z,100.00
2022-08-08T16:55:05.811Z,100.00
2022-08-08T16:55:23.772Z,100.00
2022-08-08T16:57:23.451Z,100.00
2022-08-08T17:00:08.795Z,100.00
2022-08-08T17:02:44.299Z,100.00
2022-08-08T17:05:14.015Z,100.00
2022-08-08T17:07:46.845Z,100.00
2022-08-08T17:10:19.495Z,100.00
2022-08-08T17:12:53.146Z,100.00
2022-08-08T17:15:22.922Z,100.00
2022-08-08T17:18:03.461Z,100.00
2022-08-08T17:20:32.560Z,100.00
2022-08-08T17:23:18.410Z,100.00
2022-08-08T17:25:53.464Z,100.00
2022-08-08T17:28:22.692Z,100.00
2022-08-08T17:31:02.761Z,100.00
2022-08-08T17:34:35.831Z,100.00
2022-08-08T17:36:38.647Z,100.00
2022-08-08T17:40:05.173Z,100.00
2022-08-08T17:42:18.177Z,100.00
2022-08-08T17:44:46.415Z,100.00
2022-08-08T17:47:23.662Z,100.00
2022-08-08T17:50:06.073Z,100.00
2022-08-08T17:52:35.462Z,100.00
2022-08-08T17:56:03.788Z,100.00
2022-08-08T17:57:55.868Z,100.00
2022-08-08T18:00:30.825Z,100.00
2022-08-08T18:03:07.473Z,100.00
2022-08-08T18:05:48.610Z,100.00
2022-08-08T18:08:24.434Z,100.00
2022-08-08T18:11:07.912Z,100.00
2022-08-08T18:13:41.389Z,100.00
2022-08-08T18:16:10.984Z,100.00
2022-08-08T18:18:45.569Z,100.00
2022-08-08T18:21:35.120Z,100.00
2022-08-08T18:24:17.287Z,100.00
2022-08-08T18:26:54.845Z,100.00
2022-08-08T18:29:29.434Z,100.00
2022-08-08T18:31:58.382Z,100.00
2022-08-08T18:34:27.776Z,100.00
2022-08-08T18:36:56.346Z,100.00
2022-08-08T18:39:28.080Z,100.00
2022-08-08T18:42:02.850Z,100.00
2022-08-08T18:44:32.807Z,100.00
2022-08-08T18:47:02.862Z,100.00
2022-08-08T18:49:32.628Z,100.00
2022-08-08T18:52:18.172Z,100.00
2022-08-08T18:55:00.897Z,100.00
2022-08-08T18:57:36.774Z,100.00
2022-08-08T19:00:13.607Z,100.00
2022-08-08T19:02:56.187Z,100.00
2022-08-08T19:05:32.054Z,100.00
2022-08-08T19:08:10.185Z,100.00
2022-08-08T19:10:54.508Z,100.00
2022-08-08T19:13:38.326Z,100.00
2022-08-08T19:16:19.315Z,100.00
2022-08-08T19:18:53.037Z,100.00
2022-08-08T19:21:32.798Z,100.00
2022-08-08T19:24:05.531Z,100.00
2022-08-08T19:26:34.607Z,100.00
2022-08-08T19:29:04.520Z,100.00
2022-08-08T19:31:35.290Z,100.00
2022-08-08T19:34:35.539Z,100.00
2022-08-08T19:36:58.698Z,100.00
2022-08-08T19:39:30.891Z,100.00
2022-08-08T19:42:03.889Z,100.00
2022-08-08T19:44:46.404Z,100.00
2022-08-08T19:47:23.463Z,100.00
2022-08-08T19:50:00.253Z,100.00
2022-08-08T19:52:35.493Z,100.00
2022-08-08T19:55:08.772Z,100.00
2022-08-08T19:57:37.906Z,100.00
2022-08-08T20:00:11.460Z,100.00
2022-08-08T20:02:57.742Z,100.00
2022-08-08T20:06:16.401Z,100.00
2022-08-08T20:08:28.870Z,100.00
2022-08-08T20:10:59.671Z,100.00
2022-08-08T20:14:32.729Z,100.00
2022-08-08T20:16:17.577Z,100.00
2022-08-08T20:18:52.498Z,100.00
2022-08-08T20:21:24.998Z,100.00
2022-08-08T20:23:57.423Z,100.00
2022-08-08T20:26:33.746Z,100.00
2022-08-08T20:29:02.483Z,100.00
2022-08-08T20:32:02.568Z,100.00
2022-08-08T20:34:29.231Z,100.00
2022-08-08T20:37:00.151Z,100.00
2022-08-08T20:39:39.251Z,100.00
2022-08-08T20:42:16.708Z,100.00
2022-08-08T20:44:44.554Z,100.00
2022-08-08T20:47:15.631Z,100.00
2022-08-08T20:49:51.002Z,100.00
2022-08-08T20:52:25.524Z,100.00
2022-08-08T20:54:53.366Z,100.00
2022-08-08T20:57:21.615Z,100.00
2022-08-08T20:59:49.524Z,100.00
2022-08-08T21:02:25.357Z,100.00
2022-08-08T21:04:53.846Z,100.00
2022-08-08T21:07:46.939Z,100.00
2022-08-08T21:10:13.449Z,100.00
2022-08-08T21:12:44.578Z,100.00
2022-08-08T21:15:16.605Z,100.00
2022-08-08T21:18:03.955Z,100.00
2022-08-08T21:20:34.456Z,100.00
2022-08-08T21:23:02.854Z,100.00
2022-08-08T21:25:32.914Z,100.00
2022-08-08T21:28:16.083Z,100.00
2022-08-08T21:30:49.495Z,100.00
2022-08-08T21:33:19.340Z,100.00
2022-08-08T21:36:14.586Z,100.00
2022-08-08T21:38:34.937Z,100.00
2022-08-08T21:41:02.710Z,100.00
2022-08-08T21:43:34.821Z,100.00
2022-08-08T21:48:04.262Z,100.00
2022-08-08T21:48:54.958Z,100.00
2022-08-08T21:54:18.013Z,100.00
2022-08-08T21:54:32.732Z,100.00
2022-08-08T21:57:02.709Z,100.00
2022-08-08T22:00:02.599Z,100.00
2022-08-08T22:02:19.415Z,100.00
2022-08-08T22:04:58.596Z,100.00
2022-08-08T22:07:39.478Z,100.00
2022-08-08T22:10:09.910Z,100.00
2022-08-08T22:12:46.929Z,100.00
2022-08-08T22:15:15.007Z,100.00
2022-08-08T22:17:45.699Z,100.00
2022-08-08T22:20:23.662Z,100.00
2022-08-08T22:22:56.307Z,100.00
2022-08-08T22:25:24.925Z,100.00
2022-08-08T22:28:04.054Z,100.00
2022-08-08T22:30:33.585Z,100.00
2022-08-08T22:33:01.847Z,100.00
2022-08-08T22:36:04.386Z,100.00
2022-08-08T22:38:19.593Z,100.00
2022-08-08T22:40:49.649Z,100.00
2022-08-08T22:43:18.258Z,100.00
2022-08-08T22:45:46.673Z,100.00
2022-08-08T22:48:21.785Z,100.00
2022-08-08T22:50:51.730Z,100.00
2022-08-08T22:54:27.774Z,100.00
2022-08-08T22:56:07.951Z,100.00
2022-08-08T22:58:35.771Z,100.00
2022-08-08T23:01:16.789Z,100.00
2022-08-08T23:03:56.716Z,100.00
2022-08-08T23:06:26.786Z,100.00
2022-08-08T23:08:58.874Z,100.00
2022-08-08T23:12:17.971Z,100.00
2022-08-08T23:14:17.731Z,100.00
2022-08-08T23:16:57.461Z,100.00
2022-08-08T23:19:27.963Z,100.00
2022-08-08T23:22:02.173Z,100.00
2022-08-08T23:24:36.615Z,100.00
2022-08-08T23:27:05.593Z,100.00
2022-08-08T23:29:34.110Z,100.00
2022-08-08T23:32:04.373Z,100.00
2022-08-08T23:34:33.050Z,100.00
2022-08-08T23:37:03.576Z,100.00
2022-08-08T23:39:41.933Z,100.00
2022-08-08T23:42:17.723Z,100.00
2022-08-08T23:44:49.533Z,100.00
2022-08-08T23:49:06.341Z,100.00
2022-08-08T23:50:07.691Z,100.00
2022-08-08T23:52:44.301Z,100.00
2022-08-08T23:55:22.496Z,100.00
2022-08-08T23:57:52.997Z,100.00
